createdAt,value
2018-02-21T00:01:08.764Z,79.33
2018-02-21T00:03:36.258Z,79.36
2018-02-21T00:06:03.737Z,79.25
2018-02-21T00:08:31.212Z,79.39
2018-02-21T00:10:58.704Z,79.20
2018-02-21T00:13:26.175Z,79.29
2018-02-21T00:15:53.655Z,79.21
2018-02-21T00:18:21.218Z,79.35
2018-02-21T00:20:48.728Z,79.44
2018-02-21T00:23:16.194Z,79.48
2018-02-21T00:25:43.674Z,79.34
2018-02-21T00:28:11.149Z,79.76
2018-02-21T00:30:38.675Z,79.56
2018-02-21T00:33:06.140Z,79.86
2018-02-21T00:35:33.631Z,79.59
2018-02-21T00:38:01.107Z,79.89
2018-02-21T00:40:28.614Z,79.69
2018-02-21T00:42:56.078Z,79.97
2018-02-21T00:45:23.563Z,79.99
2018-02-21T00:47:51.041Z,79.93
2018-02-21T00:50:18.626Z,79.93
2018-02-21T00:52:46.109Z,80.43
2018-02-21T00:55:13.574Z,80.40
2018-02-21T00:57:41.055Z,80.45
2018-02-21T01:00:08.621Z,80.35
2018-02-21T01:02:36.099Z,80.34
2018-02-21T01:05:03.667Z,80.36
2018-02-21T01:07:31.185Z,80.29
2018-02-21T01:09:58.661Z,80.31
2018-02-21T01:12:26.146Z,80.27
2018-02-21T01:14:53.633Z,80.15
2018-02-21T01:17:21.129Z,80.28
2018-02-21T01:19:48.698Z,80.28
2018-02-21T01:22:16.197Z,80.28
2018-02-21T01:24:43.731Z,80.32
2018-02-21T01:27:11.311Z,80.39
2018-02-21T01:29:38.801Z,80.51
2018-02-21T01:32:06.360Z,80.60
2018-02-21T01:34:33.833Z,80.53
2018-02-21T01:37:01.396Z,80.47
2018-02-21T01:39:28.963Z,80.46
2018-02-21T01:41:56.556Z,80.36
2018-02-21T01:44:24.216Z,80.36
2018-02-21T01:46:51.795Z,80.36
2018-02-21T01:49:19.266Z,80.55
2018-02-21T01:51:46.744Z,80.77
2018-02-21T01:54:14.344Z,80.74
2018-02-21T01:56:41.879Z,80.99
2018-02-21T01:59:09.355Z,80.82
2018-02-21T02:01:36.842Z,81.16
2018-02-21T02:04:04.313Z,81.41
2018-02-21T02:06:31.802Z,81.65
2018-02-21T02:08:59.306Z,81.87
2018-02-21T02:11:26.791Z,81.91
2018-02-21T02:13:54.282Z,81.90
2018-02-21T02:16:21.777Z,82.07
2018-02-21T02:18:49.259Z,82.12
2018-02-21T02:21:16.789Z,82.21
2018-02-21T02:23:44.365Z,82.21
2018-02-21T02:26:11.943Z,82.39
2018-02-21T02:28:39.525Z,82.48
2018-02-21T02:31:07.088Z,82.56
2018-02-21T02:33:34.754Z,82.51
2018-02-21T02:36:02.225Z,82.77
2018-02-21T02:41:32.499Z,83.26
2018-02-21T02:44:00.161Z,83.40
2018-02-21T02:46:27.661Z,83.43
2018-02-21T02:48:55.133Z,83.56
2018-02-21T02:51:22.672Z,83.90
2018-02-21T02:53:50.144Z,83.81
2018-02-21T02:56:17.620Z,83.89
2018-02-21T02:58:45.096Z,84.07
2018-02-21T03:01:12.570Z,84.38
2018-02-21T03:03:40.072Z,84.48
2018-02-21T03:06:07.632Z,84.70
2018-02-21T03:08:35.098Z,84.75
2018-02-21T03:11:02.675Z,84.79
2018-02-21T03:13:30.143Z,84.60
2018-02-21T03:15:59.969Z,84.80
2018-02-21T03:18:27.514Z,84.98
2018-02-21T03:20:54.981Z,85.15
2018-02-21T03:23:22.490Z,85.18
2018-02-21T03:25:50.068Z,84.85
2018-02-21T03:28:17.617Z,85.01
2018-02-21T03:30:45.128Z,85.00
2018-02-21T03:33:12.667Z,84.93
2018-02-21T03:35:40.205Z,84.74
2018-02-21T03:38:07.729Z,84.85
2018-02-21T03:40:35.210Z,84.64
2018-02-21T03:43:02.717Z,84.93
2018-02-21T03:45:30.180Z,84.83
2018-02-21T03:47:57.650Z,85.23
2018-02-21T03:50:25.177Z,85.41
2018-02-21T03:52:52.653Z,85.50
2018-02-21T03:55:20.538Z,85.88
2018-02-21T03:57:48.043Z,86.08
2018-02-21T04:00:15.545Z,86.03
2018-02-21T04:02:43.059Z,85.97
2018-02-21T04:05:10.520Z,86.13
2018-02-21T04:07:38.998Z,86.47
2018-02-21T04:10:06.524Z,86.58
2018-02-21T04:12:34.081Z,86.48
2018-02-21T04:15:01.864Z,86.41
2018-02-21T04:17:29.365Z,86.72
2018-02-21T04:19:56.866Z,86.89
2018-02-21T04:22:24.383Z,86.74
2018-02-21T04:24:51.869Z,86.94
2018-02-21T04:27:19.490Z,87.20
2018-02-21T04:29:47.013Z,87.26
2018-02-21T04:32:14.585Z,87.50
2018-02-21T04:34:42.103Z,87.42
2018-02-21T04:37:09.569Z,87.43
2018-02-21T04:39:37.070Z,87.36
2018-02-21T04:42:04.608Z,87.36
2018-02-21T04:44:32.113Z,87.65
2018-02-21T04:46:59.688Z,87.36
2018-02-21T04:49:27.161Z,87.13
2018-02-21T04:51:54.690Z,86.88
2018-02-21T04:57:40.983Z,86.48
2018-02-21T05:00:09.838Z,86.81
2018-02-21T05:02:37.353Z,86.61
2018-02-21T05:05:04.819Z,86.77
2018-02-21T05:07:32.386Z,86.47
2018-02-21T05:09:59.893Z,86.35
2018-02-21T05:12:27.391Z,86.83
2018-02-21T05:14:55.002Z,86.69
2018-02-21T05:17:22.483Z,86.44
2018-02-21T05:19:49.983Z,86.87
2018-02-21T05:22:17.449Z,86.93
2018-02-21T05:24:44.962Z,86.82
2018-02-21T05:27:12.437Z,87.02
2018-02-21T05:29:39.931Z,86.94
2018-02-21T05:32:07.406Z,86.61
2018-02-21T05:34:34.877Z,87.26
2018-02-21T05:37:02.426Z,87.20
2018-02-21T05:39:29.917Z,87.46
2018-02-21T05:41:57.465Z,87.21
2018-02-21T05:44:25.342Z,87.68
2018-02-21T05:46:52.858Z,88.54
2018-02-21T05:49:20.342Z,88.15
2018-02-21T05:51:47.854Z,88.51
2018-02-21T05:54:15.427Z,88.57
2018-02-21T05:56:42.993Z,88.14
2018-02-21T05:59:10.480Z,87.96
2018-02-21T06:01:37.987Z,87.83
2018-02-21T06:04:05.464Z,87.68
2018-02-21T06:06:32.935Z,88.08
2018-02-21T06:09:00.439Z,88.30
2018-02-21T06:11:27.906Z,88.35
2018-02-21T06:13:55.380Z,88.31
2018-02-21T06:16:22.871Z,88.36
2018-02-21T06:18:50.364Z,88.49
2018-02-21T06:21:17.859Z,88.29
2018-02-21T06:23:45.429Z,87.98
2018-02-21T06:26:12.975Z,88.01
2018-02-21T06:28:40.501Z,87.78
2018-02-21T06:31:08.405Z,87.48
2018-02-21T06:33:35.879Z,87.24
2018-02-21T06:36:03.349Z,87.21
2018-02-21T06:38:30.868Z,87.25
2018-02-21T06:40:58.298Z,87.20
2018-02-21T06:43:25.847Z,87.26
2018-02-21T06:45:53.339Z,86.60
2018-02-21T06:48:20.853Z,86.04
2018-02-21T06:50:48.317Z,85.67
2018-02-21T06:53:15.800Z,85.44
2018-02-21T06:55:43.315Z,85.52
2018-02-21T06:58:10.848Z,85.68
2018-02-21T07:00:38.504Z,85.77
2018-02-21T07:03:05.976Z,85.49
2018-02-21T07:05:33.459Z,85.42
2018-02-21T07:08:01.125Z,84.87
2018-02-21T07:10:28.618Z,84.99
2018-02-21T07:12:56.125Z,84.90
2018-02-21T07:15:23.749Z,84.83
2018-02-21T07:17:51.208Z,84.76
2018-02-21T07:20:18.692Z,84.39
2018-02-21T07:22:46.154Z,84.44
2018-02-21T07:25:13.684Z,83.87
2018-02-21T07:27:41.166Z,83.84
2018-02-21T07:30:08.631Z,83.87
2018-02-21T07:32:36.110Z,83.67
2018-02-21T07:35:03.591Z,83.35
2018-02-21T07:37:31.067Z,83.02
2018-02-21T07:39:58.548Z,83.07
2018-02-21T07:42:26.136Z,82.97
2018-02-21T07:44:53.630Z,82.55
2018-02-21T07:47:21.140Z,82.25
2018-02-21T07:49:48.639Z,82.24
2018-02-21T07:52:16.130Z,81.43
2018-02-21T07:54:43.613Z,80.84
2018-02-21T07:57:11.099Z,81.12
2018-02-21T07:59:38.569Z,81.11
2018-02-21T08:02:06.062Z,80.97
2018-02-21T08:04:35.361Z,80.29
2018-02-21T08:07:02.833Z,80.61
2018-02-21T08:09:30.319Z,80.76
2018-02-21T08:11:57.877Z,80.49
2018-02-21T08:14:25.361Z,79.59
2018-02-21T08:16:53.114Z,79.51
2018-02-21T08:19:20.616Z,79.55
2018-02-21T08:21:48.119Z,78.57
2018-02-21T08:24:15.592Z,79.29
2018-02-21T08:26:43.105Z,77.38
2018-02-21T08:29:10.589Z,77.87
2018-02-21T08:31:38.078Z,77.35
2018-02-21T08:34:05.643Z,78.15
2018-02-21T08:36:33.152Z,77.52
2018-02-21T08:39:00.675Z,76.74
2018-02-21T08:41:28.145Z,76.91
2018-02-21T08:43:55.634Z,77.32
2018-02-21T08:46:23.115Z,77.01
2018-02-21T08:48:50.662Z,76.46
2018-02-21T08:51:18.229Z,77.35
2018-02-21T08:53:45.708Z,76.72
2018-02-21T08:56:13.270Z,74.96
2018-02-21T08:58:40.745Z,73.40
2018-02-21T09:01:08.355Z,71.50
2018-02-21T09:03:35.857Z,69.69
2018-02-21T09:06:03.355Z,70.02
2018-02-21T09:08:30.832Z,70.27
2018-02-21T09:10:58.335Z,68.32
2018-02-21T09:13:25.795Z,69.34
2018-02-21T09:15:53.354Z,68.53
2018-02-21T09:18:20.826Z,68.92
2018-02-21T09:20:48.389Z,68.83
2018-02-21T09:23:15.970Z,68.98
2018-02-21T09:25:43.539Z,67.12
2018-02-21T09:28:11.017Z,66.39
2018-02-21T09:30:38.986Z,65.06
2018-02-21T09:33:06.464Z,65.79
2018-02-21T09:35:33.930Z,64.03
2018-02-21T09:38:01.404Z,60.74
2018-02-21T09:40:28.966Z,59.34
2018-02-21T09:42:56.541Z,58.92
2018-02-21T09:45:24.126Z,59.71
2018-02-21T09:47:51.621Z,61.16
2018-02-21T09:50:19.178Z,60.63
2018-02-21T09:52:46.730Z,60.24
2018-02-21T09:55:14.247Z,60.98
2018-02-21T09:57:41.729Z,59.08
2018-02-21T10:00:09.198Z,56.66
2018-02-21T10:02:36.664Z,56.59
2018-02-21T10:05:04.190Z,56.15
2018-02-21T10:07:31.761Z,54.75
2018-02-21T10:09:59.246Z,54.07
2018-02-21T10:12:26.783Z,53.65
2018-02-21T10:14:54.268Z,52.42
2018-02-21T10:17:21.747Z,53.92
2018-02-21T10:19:49.257Z,52.28
2018-02-21T10:22:16.746Z,52.13
2018-02-21T10:24:44.264Z,52.46
2018-02-21T10:27:11.729Z,52.70
2018-02-21T10:29:39.310Z,52.83
2018-02-21T10:32:06.879Z,52.78
2018-02-21T10:34:34.360Z,51.50
2018-02-21T10:37:01.832Z,49.15
2018-02-21T10:39:29.325Z,48.89
2018-02-21T10:41:56.860Z,49.43
2018-02-21T10:44:24.327Z,49.03
2018-02-21T10:46:51.930Z,49.04
2018-02-21T10:49:19.446Z,49.66
2018-02-21T10:51:46.933Z,48.29
2018-02-21T10:54:14.423Z,48.46
2018-02-21T10:56:42.316Z,46.03
2018-02-21T10:59:09.782Z,46.57
2018-02-21T11:01:37.962Z,45.10
2018-02-21T11:04:05.453Z,43.93
2018-02-21T11:06:32.916Z,45.00
2018-02-21T11:09:00.418Z,45.46
2018-02-21T11:11:27.892Z,44.31
2018-02-21T11:13:55.368Z,45.00
2018-02-21T11:16:22.831Z,42.92
2018-02-21T11:18:50.317Z,42.70
2018-02-21T11:21:17.787Z,42.67
2018-02-21T11:23:45.348Z,44.03
2018-02-21T11:26:12.873Z,45.41
2018-02-21T11:28:40.368Z,44.21
2018-02-21T11:31:07.838Z,45.51
2018-02-21T11:33:35.327Z,43.78
2018-02-21T11:36:02.815Z,43.73
2018-02-21T11:38:30.283Z,43.99
2018-02-21T11:40:57.817Z,44.57
2018-02-21T11:43:25.374Z,44.97
2018-02-21T11:45:52.851Z,45.21
2018-02-21T11:48:20.349Z,44.74
2018-02-21T11:50:47.838Z,43.42
2018-02-21T11:53:15.316Z,43.55
2018-02-21T11:55:42.833Z,43.07
2018-02-21T11:58:10.393Z,41.66
2018-02-21T12:00:37.852Z,41.74
2018-02-21T12:03:05.335Z,41.19
2018-02-21T12:05:32.805Z,41.15
2018-02-21T12:08:00.291Z,41.22
2018-02-21T12:10:27.838Z,39.50
2018-02-21T12:12:55.429Z,40.62
2018-02-21T12:15:22.895Z,38.89
2018-02-21T12:17:50.369Z,38.20
2018-02-21T12:20:17.835Z,37.63
2018-02-21T12:22:45.313Z,37.99
2018-02-21T12:25:12.771Z,37.65
2018-02-21T12:27:40.245Z,38.46
2018-02-21T12:30:07.738Z,38.94
2018-02-21T12:32:36.174Z,38.68
2018-02-21T12:35:03.639Z,38.10
2018-02-21T12:37:31.218Z,39.17
2018-02-21T12:39:59.513Z,38.27
2018-02-21T12:42:27.016Z,38.91
2018-02-21T12:44:54.494Z,39.06
2018-02-21T12:47:22.024Z,38.46
2018-02-21T12:49:49.531Z,38.02
2018-02-21T12:52:17.008Z,38.92
2018-02-21T12:54:44.520Z,38.42
2018-02-21T12:57:12.014Z,37.71
2018-02-21T12:59:39.542Z,37.70
2018-02-21T13:02:07.022Z,37.61
2018-02-21T13:04:34.481Z,39.03
2018-02-21T13:07:01.969Z,39.50
2018-02-21T13:09:29.433Z,39.58
2018-02-21T13:11:56.910Z,40.56
2018-02-21T13:14:24.386Z,40.04
2018-02-21T13:16:51.890Z,40.88
2018-02-21T13:19:19.388Z,40.52
2018-02-21T13:21:46.869Z,39.91
2018-02-21T13:24:14.336Z,40.10
2018-02-21T13:26:41.818Z,38.75
2018-02-21T13:29:09.375Z,38.30
2018-02-21T13:31:37.366Z,38.17
2018-02-21T13:34:04.833Z,39.29
2018-02-21T13:36:32.395Z,40.96
2018-02-21T13:38:59.968Z,41.00
2018-02-21T13:41:27.552Z,40.88
2018-02-21T13:43:55.039Z,40.16
2018-02-21T13:46:22.625Z,40.20
2018-02-21T13:48:50.196Z,41.71
2018-02-21T13:51:17.696Z,43.70
2018-02-21T13:53:45.207Z,44.54
2018-02-21T13:56:12.666Z,45.62
2018-02-21T13:58:40.147Z,46.30
2018-02-21T14:01:07.715Z,47.64
2018-02-21T14:03:35.286Z,48.26
2018-02-21T14:06:02.861Z,47.65
2018-02-21T14:08:30.330Z,48.21
2018-02-21T14:10:57.805Z,48.20
2018-02-21T14:13:25.273Z,47.54
2018-02-21T14:15:52.844Z,47.65
2018-02-21T14:18:20.515Z,48.53
2018-02-21T14:20:48.045Z,48.03
2018-02-21T14:23:15.523Z,47.54
2018-02-21T14:25:43.037Z,48.34
2018-02-21T14:28:10.529Z,48.70
2018-02-21T14:30:38.086Z,47.78
2018-02-21T14:33:05.555Z,47.26
2018-02-21T14:35:33.032Z,47.52
2018-02-21T14:38:00.592Z,47.99
2018-02-21T14:40:28.155Z,47.96
2018-02-21T14:42:55.634Z,47.88
2018-02-21T14:45:23.098Z,47.60
2018-02-21T14:47:50.589Z,47.46
2018-02-21T14:50:18.110Z,47.44
2018-02-21T14:52:45.626Z,47.28
2018-02-21T14:55:13.095Z,46.81
2018-02-21T14:57:40.572Z,47.59
2018-02-21T15:00:08.650Z,47.65
2018-02-21T15:02:36.118Z,48.65
2018-02-21T15:05:03.706Z,48.13
2018-02-21T15:07:31.177Z,48.71
2018-02-21T15:09:58.656Z,48.75
2018-02-21T15:12:26.182Z,49.25
2018-02-21T15:14:53.728Z,48.70
2018-02-21T15:17:21.206Z,48.87
2018-02-21T15:19:48.678Z,47.02
2018-02-21T15:22:16.192Z,46.93
2018-02-21T15:24:43.668Z,45.66
2018-02-21T15:27:11.243Z,46.10
2018-02-21T15:29:38.723Z,44.84
2018-02-21T15:32:06.251Z,45.12
2018-02-21T15:34:33.719Z,45.38
2018-02-21T15:37:01.194Z,46.01
2018-02-21T15:39:28.675Z,45.85
2018-02-21T15:41:56.187Z,45.92
2018-02-21T15:44:23.659Z,45.71
2018-02-21T15:46:51.157Z,47.25
2018-02-21T15:49:18.641Z,46.71
2018-02-21T15:51:46.122Z,47.07
2018-02-21T15:54:13.725Z,46.82
2018-02-21T15:56:41.201Z,47.11
2018-02-21T15:59:08.667Z,47.17
2018-02-21T16:01:37.101Z,47.42
2018-02-21T16:04:04.598Z,47.15
2018-02-21T16:06:32.062Z,47.87
2018-02-21T16:08:59.533Z,48.06
2018-02-21T16:11:27.014Z,48.48
2018-02-21T16:13:54.472Z,49.17
2018-02-21T16:16:21.996Z,49.07
2018-02-21T16:18:49.496Z,50.64
2018-02-21T16:21:16.977Z,50.69
2018-02-21T16:23:44.493Z,50.61
2018-02-21T16:26:12.017Z,51.48
2018-02-21T16:28:39.497Z,51.25
2018-02-21T16:31:07.010Z,52.79
2018-02-21T16:33:34.584Z,51.94
2018-02-21T16:36:02.160Z,52.53
2018-02-21T16:38:29.621Z,52.75
2018-02-21T16:40:57.206Z,54.29
2018-02-21T16:43:24.675Z,53.35
2018-02-21T16:45:52.238Z,54.13
2018-02-21T16:48:19.715Z,54.79
2018-02-21T16:50:47.277Z,54.75
2018-02-21T16:53:14.777Z,55.88
2018-02-21T16:55:42.332Z,56.74
2018-02-21T16:58:09.859Z,57.27
2018-02-21T17:00:37.394Z,57.74
2018-02-21T17:03:04.873Z,58.72
2018-02-21T17:05:32.330Z,59.08
2018-02-21T17:07:59.898Z,59.26
2018-02-21T17:10:27.371Z,59.39
2018-02-21T17:12:54.859Z,59.21
2018-02-21T17:15:22.531Z,60.13
2018-02-21T17:17:50.281Z,60.34
2018-02-21T17:20:17.958Z,60.62
2018-02-21T17:22:45.431Z,61.16
2018-02-21T17:25:12.913Z,60.93
2018-02-21T17:27:40.412Z,62.30
2018-02-21T17:30:07.890Z,63.30
2018-02-21T17:32:35.380Z,63.49
2018-02-21T17:35:02.887Z,64.45
2018-02-21T17:37:30.461Z,64.01
2018-02-21T17:39:57.975Z,64.44
2018-02-21T17:42:25.511Z,65.00
2018-02-21T17:44:53.009Z,65.17
2018-02-21T17:47:20.496Z,65.83
2018-02-21T17:49:48.014Z,65.74
2018-02-21T17:52:15.570Z,65.71
2018-02-21T17:54:43.053Z,65.69
2018-02-21T17:57:10.617Z,66.25
2018-02-21T17:59:38.092Z,66.11
2018-02-21T18:02:05.568Z,66.16
2018-02-21T18:04:33.162Z,66.65
2018-02-21T18:07:00.628Z,66.95
2018-02-21T18:09:28.192Z,66.05
2018-02-21T18:11:56.094Z,66.40
2018-02-21T18:14:23.748Z,66.43
2018-02-21T18:16:51.240Z,66.31
2018-02-21T18:19:18.724Z,66.46
2018-02-21T18:21:50.188Z,66.38
2018-02-21T18:24:17.661Z,66.30
2018-02-21T18:26:45.198Z,66.28
2018-02-21T18:29:12.767Z,66.19
2018-02-21T18:31:40.256Z,66.36
2018-02-21T18:34:07.867Z,66.37
2018-02-21T18:36:35.341Z,66.46
2018-02-21T18:39:02.811Z,66.71
2018-02-21T18:41:30.304Z,67.39
2018-02-21T18:43:57.772Z,67.21
2018-02-21T18:46:25.274Z,67.36
2018-02-21T18:48:52.764Z,67.12
2018-02-21T18:51:20.241Z,67.40
2018-02-21T18:53:47.718Z,67.00
2018-02-21T18:56:15.249Z,66.99
2018-02-21T18:58:42.764Z,67.42
2018-02-21T19:01:10.240Z,67.46
2018-02-21T19:03:37.810Z,67.71
2018-02-21T19:06:05.297Z,67.63
2018-02-21T19:08:32.816Z,68.02
2018-02-21T19:11:00.289Z,67.72
2018-02-21T19:13:27.813Z,68.03
2018-02-21T19:15:55.534Z,68.15
2018-02-21T19:18:23.130Z,68.32
2018-02-21T19:20:50.658Z,68.44
2018-02-21T19:23:18.165Z,68.95
2018-02-21T19:25:45.638Z,69.11
2018-02-21T19:28:13.124Z,68.92
2018-02-21T19:30:40.602Z,68.95
2018-02-21T19:33:08.137Z,69.03
2018-02-21T19:35:35.712Z,69.18
2018-02-21T19:38:03.271Z,69.10
2018-02-21T19:40:30.761Z,68.48
2018-02-21T19:42:58.233Z,68.61
2018-02-21T19:45:25.814Z,69.49
2018-02-21T19:47:53.396Z,69.07
2018-02-21T19:50:20.895Z,69.71
2018-02-21T19:52:48.403Z,69.29
2018-02-21T19:55:15.885Z,69.73
2018-02-21T19:57:43.528Z,69.19
2018-02-21T20:00:11.003Z,69.53
2018-02-21T20:02:38.475Z,69.66
2018-02-21T20:05:05.955Z,69.49
2018-02-21T20:07:33.834Z,69.80
2018-02-21T20:10:01.305Z,70.06
2018-02-21T20:12:28.787Z,70.59
2018-02-21T20:14:56.262Z,70.46
2018-02-21T20:17:23.740Z,70.75
2018-02-21T20:19:51.308Z,70.69
2018-02-21T20:22:18.800Z,71.20
2018-02-21T20:24:46.369Z,71.04
2018-02-21T20:27:13.869Z,71.17
2018-02-21T20:29:41.356Z,71.72
2018-02-21T20:32:08.891Z,72.07
2018-02-21T20:34:36.425Z,71.49
2018-02-21T20:37:03.899Z,71.55
2018-02-21T20:39:31.392Z,71.85
2018-02-21T20:41:58.874Z,72.27
2018-02-21T20:44:26.360Z,72.25
2018-02-21T20:46:53.842Z,72.30
2018-02-21T20:49:21.603Z,72.61
2018-02-21T20:51:49.057Z,72.69
2018-02-21T20:54:16.528Z,73.03
2018-02-21T20:56:44.060Z,72.92
2018-02-21T20:59:11.526Z,73.32
2018-02-21T21:01:39.006Z,73.42
2018-02-21T21:04:06.482Z,73.41
2018-02-21T21:06:33.960Z,73.72
2018-02-21T21:09:01.426Z,73.68
2018-02-21T21:11:28.910Z,73.81
2018-02-21T21:13:56.385Z,73.91
2018-02-21T21:16:23.894Z,73.80
2018-02-21T21:18:52.247Z,74.01
2018-02-21T21:21:19.737Z,73.90
2018-02-21T21:23:47.215Z,74.21
2018-02-21T21:26:14.695Z,73.94
2018-02-21T21:28:42.176Z,74.47
2018-02-21T21:31:09.849Z,74.39
2018-02-21T21:33:37.379Z,74.50
2018-02-21T21:36:04.967Z,74.44
2018-02-21T21:38:32.595Z,74.71
2018-02-21T21:41:00.171Z,74.76
2018-02-21T21:43:27.756Z,74.87
2018-02-21T21:45:55.226Z,74.83
2018-02-21T21:48:22.897Z,74.99
2018-02-21T21:50:50.462Z,74.76
2018-02-21T21:53:17.927Z,74.68
2018-02-21T21:55:45.400Z,75.06
2018-02-21T21:58:12.853Z,75.38
2018-02-21T22:00:40.397Z,75.77
2018-02-21T22:03:07.865Z,75.52
2018-02-21T22:05:35.332Z,75.61
2018-02-21T22:08:02.807Z,75.52
2018-02-21T22:10:30.273Z,75.78
2018-02-21T22:12:57.748Z,76.02
2018-02-21T22:15:25.287Z,76.07
2018-02-21T22:17:52.770Z,76.21
2018-02-21T22:20:20.264Z,76.40
2018-02-21T22:22:47.744Z,76.33
2018-02-21T22:25:15.219Z,76.27
2018-02-21T22:27:42.677Z,76.46
2018-02-21T22:30:10.204Z,76.69
2018-02-21T22:32:37.772Z,76.79
2018-02-21T22:35:07.076Z,76.91
2018-02-21T22:37:34.545Z,76.84
2018-02-21T22:40:02.025Z,76.80
2018-02-21T22:42:29.494Z,76.79
2018-02-21T22:44:57.043Z,76.91
2018-02-21T22:47:24.528Z,77.36
2018-02-21T22:49:52.013Z,77.37
2018-02-21T22:52:19.493Z,77.75
2018-02-21T22:54:46.953Z,77.70
2018-02-21T22:57:14.433Z,77.70
2018-02-21T22:59:41.988Z,77.71
2018-02-21T23:02:09.466Z,77.81
2018-02-21T23:04:36.926Z,78.29
2018-02-21T23:07:04.428Z,78.56
2018-02-21T23:09:31.982Z,78.97
2018-02-21T23:11:59.695Z,78.85
2018-02-21T23:14:27.229Z,78.70
2018-02-21T23:16:54.694Z,78.14
2018-02-21T23:19:22.189Z,78.17
2018-02-21T23:21:49.658Z,78.39
2018-02-21T23:24:17.183Z,78.80
2018-02-21T23:26:44.682Z,78.76
2018-02-21T23:29:12.246Z,78.90
2018-02-21T23:31:39.746Z,79.23
2018-02-21T23:34:07.201Z,78.98
2018-02-21T23:36:34.669Z,79.28
2018-02-21T23:39:02.337Z,79.60
2018-02-21T23:41:29.921Z,79.81
2018-02-21T23:43:57.473Z,80.00
2018-02-21T23:46:24.973Z,80.07
2018-02-21T23:48:52.538Z,80.41
2018-02-21T23:51:20.146Z,80.52
2018-02-21T23:53:47.660Z,80.43
2018-02-21T23:56:15.186Z,80.83
2018-02-21T23:58:42.659Z,80.93
